Time;durP1;ratioP1;P1;durP2;ratioP2;P2;SDS_P1;SDS_P2;PMS_P1;PMS_P2;Temp;Humidity;BMP_temperature;BMP_pressure;BME280_temperature;BME280_humidity;BME280_pressure;Samples;Min_cycle;Max_cycle;Signal;HPM_P1;HPM_P2
2022/08/08 00:02:58;;;;;;;;;;;;;;;26.93;46.31;100786.00;5074226;28;2199;-38
2022/08/08 00:05:25;;;;;;;;;;;;;;;26.86;46.26;100791.06;5076466;28;1979;-40
2022/08/08 00:08:25;;;;;;;;;;;;;;;26.85;46.20;100789.34;5076923;28;1891;-35
2022/08/08 00:10:58;;;;;;;;;;;;;;;26.68;46.44;100791.84;5075330;28;1044;-40
2022/08/08 00:13:52;;;;;;;;;;;;;;;26.71;46.16;100796.91;5075476;28;1272;-38
2022/08/08 00:16:44;;;;;;;;;;;;;;;26.60;46.79;100789.81;5075666;28;2169;-37
2022/08/08 00:19:12;;;;;;;;;;;;;;;26.50;46.74;100784.50;5075566;28;1134;-39
2022/08/08 00:21:44;;;;;;;;;;;;;;;26.57;46.59;100774.94;5075691;28;1048;-40
2022/08/08 00:24:24;;;;;;;;;;;;;;;26.61;46.54;100779.03;5075528;28;1076;-40
2022/08/08 00:26:57;;;;;;;;;;;;;;;26.51;47.08;100785.31;5075439;28;1984;-40
2022/08/08 00:29:28;;;;;;;;;;;;;;;26.62;46.91;100771.84;5075367;28;1198;-39
2022/08/08 00:32:24;;;;;;;;;;;;;;;26.51;47.20;100767.47;5075379;28;1266;-39
2022/08/08 00:35:23;;;;;;;;;;;;;;;26.46;46.90;100772.38;5075130;28;1463;-36
2022/08/08 00:38:01;;;;;;;;;;;;;;;26.59;46.66;100769.47;5075467;28;1224;-40
2022/08/08 00:40:28;;;;;;;;;;;;;;;26.57;46.54;100772.25;5074260;28;816;-38
2022/08/08 00:43:27;;;;;;;;;;;;;;;26.53;46.73;100773.53;5075249;28;2414;-35
2022/08/08 00:46:25;;;;;;;;;;;;;;;26.65;46.44;100770.72;5075063;28;1909;-34
2022/08/08 00:49:15;;;;;;;;;;;;;;;26.64;46.67;100764.53;5073808;28;1423;-39
2022/08/08 00:52:06;;;;;;;;;;;;;;;26.71;46.23;100764.84;5072066;28;1311;-40
2022/08/08 00:55:00;;;;;;;;;;;;;;;26.73;46.30;100765.53;5074349;28;1698;-39
2022/08/08 00:57:40;;;;;;;;;;;;;;;26.77;46.10;100764.28;5097932;28;1783;-40
2022/08/08 01:00:11;;;;;;;;;;;;;;;26.83;45.83;100763.75;5074038;28;1251;-37
2022/08/08 01:03:00;;;;;;;;;;;;;;;26.77;45.97;100764.28;5061795;28;1402;-40
2022/08/08 01:06:07;;;;;;;;;;;;;;;26.58;46.16;100757.94;5074221;28;2179;-40
2022/08/08 01:08:37;;;;;;;;;;;;;;;26.58;46.26;100755.25;5095617;28;1589;-38
2022/08/08 01:11:27;;;;;;;;;;;;;;;26.52;46.40;100757.63;5074150;28;1176;-32
2022/08/08 01:14:16;;;;;;;;;;;;;;;26.55;46.09;100762.69;5072393;28;1785;-38
2022/08/08 01:17:18;;;;;;;;;;;;;;;26.55;45.92;100752.84;5072631;28;2213;-38
2022/08/08 01:20:06;;;;;;;;;;;;;;;26.66;45.54;100751.06;5071786;28;1291;-38
2022/08/08 01:23:00;;;;;;;;;;;;;;;26.82;45.62;100746.88;5071738;28;1279;-39
2022/08/08 01:25:28;;;;;;;;;;;;;;;26.83;45.85;100742.38;5072989;28;1263;-39
2022/08/08 01:28:20;;;;;;;;;;;;;;;26.83;45.86;100737.03;5072542;28;1448;-38
2022/08/08 01:31:01;;;;;;;;;;;;;;;26.82;46.22;100743.34;5071066;28;1302;-39
2022/08/08 01:33:49;;;;;;;;;;;;;;;26.80;46.55;100730.16;5073114;28;1858;-40
2022/08/08 01:36:32;;;;;;;;;;;;;;;26.79;46.55;100724.88;5073335;28;1020;-39
2022/08/08 01:39:09;;;;;;;;;;;;;;;26.87;46.05;100731.25;5071729;28;1395;-40
2022/08/08 01:42:12;;;;;;;;;;;;;;;26.80;45.76;100727.47;5073435;28;1219;-41
2022/08/08 01:44:52;;;;;;;;;;;;;;;26.71;45.67;100727.44;5073658;28;1191;-39
2022/08/08 01:47:37;;;;;;;;;;;;;;;26.74;45.84;100732.50;5073102;28;1910;-39
2022/08/08 01:50:29;;;;;;;;;;;;;;;26.78;45.71;100728.56;5072687;28;1214;-39
2022/08/08 01:53:15;;;;;;;;;;;;;;;26.79;45.94;100720.41;5072055;28;1305;-37
2022/08/08 01:56:20;;;;;;;;;;;;;;;26.94;45.70;100721.69;5073074;28;2270;-36
2022/08/08 01:59:15;;;;;;;;;;;;;;;26.89;46.31;100725.78;5071553;28;1325;-37
2022/08/08 02:01:54;;;;;;;;;;;;;;;26.87;46.18;100731.25;5073030;28;1304;-39
2022/08/08 02:04:38;;;;;;;;;;;;;;;26.83;46.81;100729.00;5073288;28;1071;-37
2022/08/08 02:07:18;;;;;;;;;;;;;;;26.84;46.60;100725.38;5072569;28;1993;-33
2022/08/08 02:09:45;;;;;;;;;;;;;;;26.80;46.62;100710.59;5073355;28;1094;-37
2022/08/08 02:12:52;;;;;;;;;;;;;;;26.87;46.53;100712.53;5072940;28;1279;-38
2022/08/08 02:15:28;;;;;;;;;;;;;;;26.79;46.93;100709.72;5072416;28;1250;-39
2022/08/08 02:18:23;;;;;;;;;;;;;;;26.81;46.59;100715.78;5072507;28;1252;-36
2022/08/08 02:24:01;;;;;;;;;;;;;;;26.80;46.71;100711.44;5072574;28;1616;-37
2022/08/08 02:26:32;;;;;;;;;;;;;;;26.80;46.67;100714.09;5072800;28;1913;-38
2022/08/08 02:29:06;;;;;;;;;;;;;;;26.80;46.61;100710.59;5072877;28;1307;-39
2022/08/08 02:31:52;;;;;;;;;;;;;;;26.85;46.44;100716.34;5072725;28;1099;-39
2022/08/08 02:34:47;;;;;;;;;;;;;;;26.89;46.35;100709.75;5071971;28;1334;-40
2022/08/08 02:37:36;;;;;;;;;;;;;;;27.04;46.20;100713.69;5071550;28;2053;-39
2022/08/08 02:40:37;;;;;;;;;;;;;;;27.08;46.08;100709.75;5070456;28;619;-40
2022/08/08 02:43:04;;;;;;;;;;;;;;;27.07;46.06;100708.91;5070669;28;1673;-37
2022/08/08 02:46:06;;;;;;;;;;;;;;;26.99;46.18;100714.09;5070876;28;2124;-39
2022/08/08 02:48:48;;;;;;;;;;;;;;;27.00;46.07;100713.13;5070913;28;1225;-39
2022/08/08 02:51:21;;;;;;;;;;;;;;;27.10;45.97;100721.13;5071286;28;1052;-39
2022/08/08 02:54:13;;;;;;;;;;;;;;;26.98;46.30;100719.59;5070501;28;2194;-39
2022/08/08 02:56:59;;;;;;;;;;;;;;;26.96;46.26;100718.91;5069798;28;698;-40
2022/08/08 02:59:25;;;;;;;;;;;;;;;27.04;46.01;100721.69;5070807;28;1131;-39
2022/08/08 03:02:05;;;;;;;;;;;;;;;27.01;45.95;100713.97;5070508;28;1365;-37
2022/08/08 03:04:58;;;;;;;;;;;;;;;26.83;46.69;100718.31;5070627;28;1181;-39
2022/08/08 03:07:53;;;;;;;;;;;;;;;26.85;46.51;100719.88;5070427;28;1910;-39
2022/08/08 03:10:24;;;;;;;;;;;;;;;26.88;46.34;100718.75;5072292;28;1151;-38
2022/08/08 03:13:03;;;;;;;;;;;;;;;26.81;46.75;100720.31;5072267;28;1414;-38
2022/08/08 03:16:05;;;;;;;;;;;;;;;26.76;46.18;100718.00;5072632;28;2176;-38
2022/08/08 03:18:37;;;;;;;;;;;;;;;26.78;45.48;100717.88;5072350;28;1318;-39
2022/08/08 03:21:04;;;;;;;;;;;;;;;26.78;44.92;100723.22;5054509;28;1364;-39
2022/08/08 03:23:35;;;;;;;;;;;;;;;26.75;45.15;100726.19;5072179;28;1291;-39
2022/08/08 03:26:27;;;;;;;;;;;;;;;26.77;44.83;100717.03;5072134;28;1985;-39
2022/08/08 03:29:00;;;;;;;;;;;;;;;26.79;44.99;100719.56;5072330;28;1291;-39
2022/08/08 03:34:32;;;;;;;;;;;;;;;26.77;45.04;100729.53;5072289;28;1425;-38
2022/08/08 03:36:59;;;;;;;;;;;;;;;26.76;45.42;100727.84;5073577;28;1259;-37
2022/08/08 03:39:36;;;;;;;;;;;;;;;26.68;45.61;100728.56;5075049;28;1130;-39
2022/08/08 03:42:17;;;;;;;;;;;;;;;26.71;45.52;100728.28;5073771;28;1318;-39
2022/08/08 03:44:56;;;;;;;;;;;;;;;26.63;45.89;100731.63;5074303;28;1072;-35
2022/08/08 03:47:25;;;;;;;;;;;;;;;26.70;45.83;100733.75;5073554;28;1957;-40
2022/08/08 03:50:15;;;;;;;;;;;;;;;26.76;45.23;100731.38;5074410;28;1137;-39
2022/08/08 03:52:45;;;;;;;;;;;;;;;26.71;44.63;100730.09;5074015;28;1311;-39
2022/08/08 03:55:15;;;;;;;;;;;;;;;26.70;45.02;100729.25;5074048;28;1226;-39
2022/08/08 03:58:02;;;;;;;;;;;;;;;26.69;45.24;100730.22;5075420;28;2008;-40
2022/08/08 04:00:52;;;;;;;;;;;;;;;26.72;44.59;100724.59;5075383;28;2300;-39
2022/08/08 04:03:39;;;;;;;;;;;;;;;26.75;44.84;100731.53;5075591;28;2399;-40
2022/08/08 04:06:25;;;;;;;;;;;;;;;26.76;44.26;100726.03;5074930;28;1914;-39
2022/08/08 04:08:55;;;;;;;;;;;;;;;26.55;44.82;100733.31;5075342;28;1425;-39
2022/08/08 04:11:22;;;;;;;;;;;;;;;26.62;44.78;100739.78;5075305;28;1802;-37
2022/08/08 04:13:51;;;;;;;;;;;;;;;26.55;45.10;100742.16;5075158;28;1217;-39
2022/08/08 04:16:38;;;;;;;;;;;;;;;26.61;44.94;100736.28;5075395;28;2209;-39
2022/08/08 04:19:07;;;;;;;;;;;;;;;26.54;45.54;100744.97;5074935;28;1304;-39
2022/08/08 04:21:49;;;;;;;;;;;;;;;26.69;45.15;100743.59;5074489;28;1248;-37
2022/08/08 04:24:16;;;;;;;;;;;;;;;26.60;45.37;100747.94;5075070;28;1675;-40
2022/08/08 04:26:55;;;;;;;;;;;;;;;26.63;45.25;100759.34;5074908;28;1914;-38
2022/08/08 04:29:23;;;;;;;;;;;;;;;26.66;45.02;100759.88;5074916;28;1069;-39
2022/08/08 04:31:50;;;;;;;;;;;;;;;26.50;44.56;100757.78;5066769;28;1540;-39
2022/08/08 04:34:26;;;;;;;;;;;;;;;26.26;45.06;100767.97;5055000;28;1436;-39
2022/08/08 04:37:02;;;;;;;;;;;;;;;26.25;45.50;100771.59;5054776;28;1373;-39
2022/08/08 04:39:29;;;;;;;;;;;;;;;26.21;45.36;100772.00;5054790;28;1139;-39
2022/08/08 04:42:16;;;;;;;;;;;;;;;26.02;46.47;100772.75;5054219;28;2295;-39
2022/08/08 04:44:43;;;;;;;;;;;;;;;25.80;47.48;100775.59;5054574;28;1131;-37
2022/08/08 04:47:13;;;;;;;;;;;;;;;25.88;47.92;100773.09;5054132;28;1969;-39
2022/08/08 04:49:42;;;;;;;;;;;;;;;25.70;48.44;100774.66;5053593;28;1090;-39
2022/08/08 04:52:28;;;;;;;;;;;;;;;25.60;49.43;100769.28;5054570;28;2049;-38
2022/08/08 04:54:59;;;;;;;;;;;;;;;25.56;49.71;100773.19;5054458;28;1108;-39
2022/08/08 04:57:27;;;;;;;;;;;;;;;25.58;49.48;100781.06;5054157;28;1247;-39
2022/08/08 04:59:54;;;;;;;;;;;;;;;25.62;49.24;100790.50;5054300;28;1079;-38
2022/08/08 05:02:25;;;;;;;;;;;;;;;25.59;49.44;100790.75;5054150;28;1288;-39
2022/08/08 05:04:57;;;;;;;;;;;;;;;25.66;49.34;100791.91;5054416;28;1092;-37
2022/08/08 05:07:25;;;;;;;;;;;;;;;25.88;47.81;100802.44;5054014;28;1914;-39
2022/08/08 05:10:03;;;;;;;;;;;;;;;25.63;47.89;100802.84;5054472;28;1138;-39
2022/08/08 05:12:32;;;;;;;;;;;;;;;25.60;48.30;100797.75;5054103;28;1244;-39
2022/08/08 05:15:02;;;;;;;;;;;;;;;25.60;47.81;100803.09;5053548;28;1141;-39
2022/08/08 05:17:30;;;;;;;;;;;;;;;25.75;47.08;100791.13;5053232;28;1321;-39
2022/08/08 05:20:17;;;;;;;;;;;;;;;25.89;45.87;100805.00;5054526;28;2289;-41
2022/08/08 05:22:44;;;;;;;;;;;;;;;25.96;45.59;100805.31;5053715;28;1240;-38
2022/08/08 05:25:14;;;;;;;;;;;;;;;26.05;45.02;100810.69;5054026;28;1136;-38
2022/08/08 05:27:46;;;;;;;;;;;;;;;26.00;45.34;100817.41;5053615;28;1918;-39
2022/08/08 05:30:14;;;;;;;;;;;;;;;25.95;45.36;100814.28;5052793;28;1279;-39
2022/08/08 05:32:40;;;;;;;;;;;;;;;25.95;45.53;100820.47;5051364;28;1616;-39
2022/08/08 05:35:08;;;;;;;;;;;;;;;25.93;46.16;100818.94;5051658;28;1382;-38
2022/08/08 05:37:43;;;;;;;;;;;;;;;26.08;45.50;100815.75;5051564;28;1300;-39
2022/08/08 05:40:19;;;;;;;;;;;;;;;25.91;46.26;100819.03;5051877;28;1033;-38
2022/08/08 05:42:58;;;;;;;;;;;;;;;25.86;46.58;100820.41;5051456;28;1297;-40
2022/08/08 05:45:27;;;;;;;;;;;;;;;25.89;46.40;100822.81;5051399;28;1000;-39
2022/08/08 05:47:58;;;;;;;;;;;;;;;25.93;46.90;100826.94;5052530;28;1910;-41
2022/08/08 05:50:35;;;;;;;;;;;;;;;25.82;46.90;100829.66;5053441;28;1033;-39
2022/08/08 05:53:01;;;;;;;;;;;;;;;25.94;46.73;100829.44;5053124;28;1682;-39
2022/08/08 05:55:50;;;;;;;;;;;;;;;25.93;46.83;100832.28;5053607;28;2211;-39
2022/08/08 05:58:38;;;;;;;;;;;;;;;26.06;46.60;100841.75;5053197;28;2077;-39
2022/08/08 06:01:25;;;;;;;;;;;;;;;26.14;45.69;100842.91;5053142;28;1224;-38
2022/08/08 06:04:12;;;;;;;;;;;;;;;26.11;45.35;100841.38;5065585;28;2175;-39
2022/08/08 06:06:53;;;;;;;;;;;;;;;26.11;45.20;100846.69;5053005;28;1964;-40
2022/08/08 06:09:33;;;;;;;;;;;;;;;26.19;45.25;100844.22;5053477;28;1116;-40
2022/08/08 06:12:20;;;;;;;;;;;;;;;26.31;44.60;100848.50;5052023;28;2411;-39
2022/08/08 06:15:00;;;;;;;;;;;;;;;26.35;43.99;100849.94;5053403;28;1081;-39
2022/08/08 06:17:38;;;;;;;;;;;;;;;26.42;43.80;100853.75;5052843;28;1320;-40
2022/08/08 06:20:25;;;;;;;;;;;;;;;26.56;43.26;100864.09;5052749;28;2391;-39
2022/08/08 06:22:53;;;;;;;;;;;;;;;26.50;43.20;100861.94;5052790;28;1331;-38
2022/08/08 06:25:23;;;;;;;;;;;;;;;26.55;43.28;100867.72;5052833;28;1131;-39
2022/08/08 06:28:14;;;;;;;;;;;;;;;26.60;43.57;100860.13;5052430;28;2142;-39
2022/08/08 06:30:43;;;;;;;;;;;;;;;26.66;43.26;100860.59;5052780;28;1080;-38
2022/08/08 06:33:11;;;;;;;;;;;;;;;26.73;43.30;100853.72;5054753;28;1317;-40
2022/08/08 06:35:47;;;;;;;;;;;;;;;26.68;43.42;100862.16;5070062;28;1148;-43
2022/08/08 06:38:36;;;;;;;;;;;;;;;26.71;43.36;100866.38;5072310;28;2031;-41
2022/08/08 06:41:06;;;;;;;;;;;;;;;26.80;43.14;100868.25;5072421;28;1064;-40
2022/08/08 06:43:41;;;;;;;;;;;;;;;26.83;42.85;100871.50;5072721;28;1386;-42
2022/08/08 06:46:13;;;;;;;;;;;;;;;26.99;42.67;100871.00;5072505;28;1045;-41
2022/08/08 06:48:42;;;;;;;;;;;;;;;27.00;42.25;100878.00;5072276;28;1914;-39
2022/08/08 06:51:12;;;;;;;;;;;;;;;26.99;42.27;100879.00;5072006;28;1040;-40
2022/08/08 06:53:41;;;;;;;;;;;;;;;27.10;41.89;100879.72;5071922;28;1343;-40
2022/08/08 06:56:22;;;;;;;;;;;;;;;27.09;42.13;100882.53;5071801;28;620;-40
2022/08/08 06:58:49;;;;;;;;;;;;;;;27.25;41.58;100890.88;5072728;28;1232;-42
2022/08/08 07:01:15;;;;;;;;;;;;;;;27.17;41.62;100897.91;5072525;28;1044;-40
2022/08/08 07:04:07;;;;;;;;;;;;;;;27.17;41.95;100888.06;5072603;28;2200;-41
2022/08/08 07:06:56;;;;;;;;;;;;;;;27.20;42.12;100895.78;5071919;28;2691;-41
2022/08/08 07:09:41;;;;;;;;;;;;;;;27.34;41.71;100898.06;5072326;28;1910;-40
2022/08/08 07:12:45;;;;;;;;;;;;;;;27.30;41.72;100901.16;5073648;28;1141;-40
2022/08/08 07:15:14;;;;;;;;;;;;;;;27.46;41.14;100907.66;5066523;28;1126;-39
2022/08/08 07:18:03;;;;;;;;;;;;;;;27.63;41.42;100903.47;5076066;28;2182;-40
2022/08/08 07:20:53;;;;;;;;;;;;;;;27.61;41.25;100913.44;5076065;28;2178;-40
2022/08/08 07:23:50;;;;;;;;;;;;;;;27.66;41.29;100909.34;5074508;28;1306;-42
2022/08/08 07:26:31;;;;;;;;;;;;;;;27.75;40.33;100918.38;5067536;28;1080;-41
2022/08/08 07:29:01;;;;;;;;;;;;;;;27.80;40.22;100920.63;5075738;28;1918;-40
2022/08/08 07:31:34;;;;;;;;;;;;;;;27.84;40.45;100911.34;5075498;28;1009;-41
2022/08/08 07:34:02;;;;;;;;;;;;;;;28.00;40.14;100916.94;5075355;28;1628;-42
2022/08/08 07:36:34;;;;;;;;;;;;;;;27.92;40.75;100919.50;5075128;28;1061;-42
2022/08/08 07:39:02;;;;;;;;;;;;;;;27.99;40.46;100923.28;5075417;28;1378;-41
2022/08/08 07:41:31;;;;;;;;;;;;;;;28.07;40.40;100926.97;5075578;28;1131;-42
2022/08/08 07:44:17;;;;;;;;;;;;;;;28.03;41.63;100932.72;5076114;28;2170;-40
2022/08/08 07:47:03;;;;;;;;;;;;;;;28.09;40.29;100937.53;5074981;28;1299;-42
2022/08/08 07:49:31;;;;;;;;;;;;;;;28.21;40.71;100931.03;5075602;28;1898;-41
2022/08/08 07:51:58;;;;;;;;;;;;;;;28.14;41.93;100929.94;5075736;28;1224;-41
2022/08/08 07:54:29;;;;;;;;;;;;;;;28.18;42.39;100931.31;5075562;28;1146;-41
2022/08/08 07:56:58;;;;;;;;;;;;;;;28.17;41.22;100935.00;5067482;28;1511;-40
2022/08/08 07:59:29;;;;;;;;;;;;;;;28.18;41.92;100940.19;5069334;28;1117;-39
2022/08/08 08:02:05;;;;;;;;;;;;;;;28.30;39.05;100932.84;5075609;28;1384;-42
2022/08/08 08:04:54;;;;;;;;;;;;;;;28.45;39.50;100934.09;5075238;28;2302;-41
2022/08/08 08:07:24;;;;;;;;;;;;;;;28.47;40.04;100934.78;5061798;28;1906;-42
2022/08/08 08:10:04;;;;;;;;;;;;;;;28.41;39.86;100932.69;5068274;28;1749;-40
2022/08/08 08:12:31;;;;;;;;;;;;;;;28.41;40.21;100938.03;5054375;28;1212;-39
2022/08/08 08:15:10;;;;;;;;;;;;;;;28.42;40.45;100931.69;5069208;28;1249;-41
2022/08/08 08:17:42;;;;;;;;;;;;;;;28.54;40.07;100935.03;5073046;28;1300;-42
2022/08/08 08:20:16;;;;;;;;;;;;;;;28.38;40.56;100932.97;5073792;28;1251;-40
2022/08/08 08:22:43;;;;;;;;;;;;;;;28.61;40.00;100936.97;5069179;28;1208;-41
2022/08/08 08:25:12;;;;;;;;;;;;;;;28.42;40.43;100945.09;5072600;28;1241;-41
2022/08/08 08:27:45;;;;;;;;;;;;;;;28.52;40.21;100945.03;5072863;28;1906;-39
2022/08/08 08:30:12;;;;;;;;;;;;;;;28.67;39.30;100946.28;5074625;28;1154;-40
2022/08/08 08:32:39;;;;;;;;;;;;;;;28.79;38.87;100952.34;5074238;28;1201;-40
2022/08/08 08:35:17;;;;;;;;;;;;;;;28.85;38.84;100944.53;5073835;28;1293;-36
2022/08/08 08:38:03;;;;;;;;;;;;;;;28.76;39.77;100941.91;5073628;28;2163;-40
2022/08/08 08:40:44;;;;;;;;;;;;;;;28.73;39.77;100948.38;5071734;28;1532;-40
2022/08/08 08:43:17;;;;;;;;;;;;;;;28.81;38.71;100940.47;5064090;28;1304;-39
2022/08/08 08:45:45;;;;;;;;;;;;;;;28.87;39.23;100944.38;5074191;28;861;-40
2022/08/08 08:48:12;;;;;;;;;;;;;;;28.76;39.39;100949.94;5073452;28;1905;-39
2022/08/08 08:50:47;;;;;;;;;;;;;;;28.93;38.74;100941.13;5074096;28;1132;-40
2022/08/08 08:53:17;;;;;;;;;;;;;;;28.98;39.07;100942.34;5074022;28;1375;-40
2022/08/08 08:56:05;;;;;;;;;;;;;;;28.79;39.97;100946.97;5073510;28;2094;-37
2022/08/08 08:58:38;;;;;;;;;;;;;;;28.76;40.39;100944.59;5071779;28;1288;-39
2022/08/08 09:01:08;;;;;;;;;;;;;;;28.93;39.80;100950.00;5072251;28;710;-39
2022/08/08 09:03:41;;;;;;;;;;;;;;;28.78;40.62;100947.97;5073688;28;1288;-38
2022/08/08 09:06:24;;;;;;;;;;;;;;;28.77;40.29;100948.94;5065748;28;1623;-36
2022/08/08 09:09:01;;;;;;;;;;;;;;;28.81;40.23;100953.03;5073243;28;1997;-38
2022/08/08 09:11:31;;;;;;;;;;;;;;;28.99;38.98;100945.88;5073654;28;864;-33
2022/08/08 09:13:59;;;;;;;;;;;;;;;28.95;39.33;100953.38;5073430;28;1315;-37
2022/08/08 09:16:27;;;;;;;;;;;;;;;29.14;38.60;100945.25;5073424;28;1001;-34
2022/08/08 09:18:58;;;;;;;;;;;;;;;29.19;38.49;100950.13;5073022;28;1656;-38
2022/08/08 09:21:25;;;;;;;;;;;;;;;29.34;38.56;100950.50;5073826;28;1044;-39
2022/08/08 09:24:13;;;;;;;;;;;;;;;29.44;37.14;100949.44;5071633;28;2170;-39
2022/08/08 09:26:49;;;;;;;;;;;;;;;29.32;38.29;100955.19;5067303;28;1390;-37
2022/08/08 09:29:21;;;;;;;;;;;;;;;29.46;37.07;100958.19;5059546;28;1906;-39
2022/08/08 09:31:58;;;;;;;;;;;;;;;29.28;38.23;100947.44;5068225;28;1283;-40
2022/08/08 09:34:25;;;;;;;;;;;;;;;29.24;38.76;100953.25;5057570;28;1189;-40
2022/08/08 09:37:07;;;;;;;;;;;;;;;29.14;38.95;100953.28;5073158;28;1315;-36
2022/08/08 09:39:59;;;;;;;;;;;;;;;29.32;38.47;100952.50;5073747;28;2143;-38
2022/08/08 09:42:36;;;;;;;;;;;;;;;29.20;38.14;100952.69;5072968;28;1283;-38
2022/08/08 09:45:36;;;;;;;;;;;;;;;29.42;37.79;100956.81;5073568;28;1159;-38
2022/08/08 09:48:23;;;;;;;;;;;;;;;29.40;38.21;100953.41;5071180;28;2384;-36
2022/08/08 09:51:01;;;;;;;;;;;;;;;29.49;36.63;100957.03;5073108;28;1072;-40
2022/08/08 09:53:36;;;;;;;;;;;;;;;29.62;36.45;100949.44;5072971;28;1213;-35
2022/08/08 09:56:22;;;;;;;;;;;;;;;29.61;37.87;100947.75;5072702;28;2203;-37
2022/08/08 09:58:58;;;;;;;;;;;;;;;29.30;39.14;100941.94;5072142;28;1351;-38
2022/08/08 10:01:36;;;;;;;;;;;;;;;29.65;37.13;100950.00;5072988;28;1025;-37
2022/08/08 10:04:25;;;;;;;;;;;;;;;29.89;36.07;100953.91;5054916;28;2118;-39
2022/08/08 10:07:11;;;;;;;;;;;;;;;29.37;38.56;100947.50;5072368;28;1284;-38
2022/08/08 10:09:42;;;;;;;;;;;;;;;29.80;35.79;100950.28;5072723;28;1917;-38
2022/08/08 10:12:33;;;;;;;;;;;;;;;29.64;37.05;100953.66;5071241;28;1397;-39
2022/08/08 10:15:19;;;;;;;;;;;;;;;29.71;37.38;100946.69;5072330;28;1072;-37
2022/08/08 10:17:47;;;;;;;;;;;;;;;29.39;38.64;100946.38;5072277;28;1288;-33
2022/08/08 10:20:39;;;;;;;;;;;;;;;29.76;37.43;100955.13;5071891;28;1953;-38
2022/08/08 10:23:17;;;;;;;;;;;;;;;29.41;39.13;100954.28;5071410;28;1387;-39
2022/08/08 10:26:04;;;;;;;;;;;;;;;29.38;39.55;100950.06;5065393;28;2077;-37
2022/08/08 10:29:10;;;;;;;;;;;;;;;29.73;37.61;100950.06;5071767;28;1914;-37
2022/08/08 10:34:37;;;;;;;;;;;;;;;30.10;36.14;100946.38;5061437;28;1389;-39
2022/08/08 10:37:06;;;;;;;;;;;;;;;30.12;36.77;100947.94;5078632;28;1339;-40
2022/08/08 10:39:41;;;;;;;;;;;;;;;30.10;37.40;100946.38;5069360;28;1430;-40
2022/08/08 10:42:22;;;;;;;;;;;;;;;29.64;38.99;100934.88;5069155;28;1336;-38
2022/08/08 10:44:58;;;;;;;;;;;;;;;29.94;38.23;100944.44;5068283;28;1103;-37
2022/08/08 10:47:26;;;;;;;;;;;;;;;29.79;39.00;100954.00;5071561;28;1350;-39
2022/08/08 10:50:09;;;;;;;;;;;;;;;29.56;39.89;100947.38;5072838;28;1971;-38
2022/08/08 10:52:42;;;;;;;;;;;;;;;30.05;36.68;100951.38;5074489;28;1288;-40
2022/08/08 10:55:15;;;;;;;;;;;;;;;30.00;37.84;100951.00;5075343;28;1161;-40
2022/08/08 10:58:03;;;;;;;;;;;;;;;29.76;38.80;100941.69;5075208;28;2286;-35
2022/08/08 11:00:31;;;;;;;;;;;;;;;29.77;39.48;100945.22;5074928;28;1090;-38
2022/08/08 11:03:12;;;;;;;;;;;;;;;29.77;39.22;100946.09;5074801;28;1275;-40
2022/08/08 11:05:42;;;;;;;;;;;;;;;29.70;39.29;100946.84;5075113;28;1036;-39
2022/08/08 11:08:25;;;;;;;;;;;;;;;29.94;39.35;100954.31;5074371;28;1979;-39
2022/08/08 11:11:05;;;;;;;;;;;;;;;29.80;40.25;100956.50;5068590;28;1798;-39
2022/08/08 11:13:54;;;;;;;;;;;;;;;30.33;37.22;100952.94;5074599;28;3173;-40
2022/08/08 11:16:28;;;;;;;;;;;;;;;30.47;37.93;100956.91;5074866;28;1675;-39
2022/08/08 11:19:02;;;;;;;;;;;;;;;30.54;37.69;100950.75;5073771;28;1406;-37
2022/08/08 11:21:33;;;;;;;;;;;;;;;30.35;39.07;100948.25;5074292;28;1123;-39
2022/08/08 11:24:04;;;;;;;;;;;;;;;30.38;39.12;100945.25;5074549;28;1319;-40
2022/08/08 11:26:33;;;;;;;;;;;;;;;30.32;39.78;100949.41;5074388;28;1048;-40
2022/08/08 11:29:20;;;;;;;;;;;;;;;30.50;38.74;100948.53;5072338;28;1940;-40
2022/08/08 11:31:48;;;;;;;;;;;;;;;30.13;41.01;100952.28;5075398;28;1205;-39
2022/08/08 11:34:16;;;;;;;;;;;;;;;30.20;41.03;100950.66;5074674;28;1344;-40
2022/08/08 11:36:51;;;;;;;;;;;;;;;30.11;41.87;100950.75;5075253;28;1374;-40
2022/08/08 11:39:25;;;;;;;;;;;;;;;30.54;39.81;100942.69;5073167;28;1106;-40
2022/08/08 11:42:02;;;;;;;;;;;;;;;30.67;39.88;100955.69;5074607;28;1489;-39
2022/08/08 11:44:35;;;;;;;;;;;;;;;30.58;40.66;100946.72;5075320;28;1099;-37
2022/08/08 11:47:02;;;;;;;;;;;;;;;30.15;42.69;100954.81;5075143;28;1185;-39
2022/08/08 11:49:39;;;;;;;;;;;;;;;30.26;42.46;100954.56;5055491;28;1993;-36
2022/08/08 11:52:07;;;;;;;;;;;;;;;30.15;43.13;100954.81;5056603;28;1205;-36
2022/08/08 11:54:44;;;;;;;;;;;;;;;30.41;43.06;100958.38;5075296;28;1154;-40
2022/08/08 11:57:17;;;;;;;;;;;;;;;30.10;43.33;100943.69;5073578;28;1264;-40
2022/08/08 12:00:00;;;;;;;;;;;;;;;30.13;44.12;100956.81;5075061;28;1142;-40
2022/08/08 12:02:43;;;;;;;;;;;;;;;30.10;44.24;100962.50;5074078;28;1414;-40
2022/08/08 12:05:11;;;;;;;;;;;;;;;30.63;41.25;100952.50;5074320;28;1270;-40
2022/08/08 12:07:45;;;;;;;;;;;;;;;30.66;41.91;100960.22;5073565;28;1354;-38
2022/08/08 12:10:18;;;;;;;;;;;;;;;30.69;41.70;100954.53;5074633;28;1910;-39
2022/08/08 12:12:46;;;;;;;;;;;;;;;30.48;42.69;100962.13;5074023;28;1287;-37
2022/08/08 12:15:24;;;;;;;;;;;;;;;30.51;42.21;100956.44;5074608;28;1131;-34
2022/08/08 12:17:51;;;;;;;;;;;;;;;30.63;41.84;100960.56;5073793;28;1224;-38
2022/08/08 12:20:18;;;;;;;;;;;;;;;30.51;42.12;100958.28;5073795;28;1224;-40
2022/08/08 12:22:49;;;;;;;;;;;;;;;30.53;42.77;100959.81;5074219;28;1355;-37
2022/08/08 12:25:25;;;;;;;;;;;;;;;30.56;41.10;100959.50;5074857;28;1070;-40
2022/08/08 12:28:07;;;;;;;;;;;;;;;30.45;42.09;100953.53;5074139;28;1383;-40
2022/08/08 12:30:42;;;;;;;;;;;;;;;30.29;42.88;100956.94;5074137;28;1977;-39
2022/08/08 12:33:16;;;;;;;;;;;;;;;30.63;40.93;100949.78;5072633;28;1427;-37
2022/08/08 12:35:44;;;;;;;;;;;;;;;30.55;41.01;100946.22;5074207;28;1139;-39
2022/08/08 12:38:19;;;;;;;;;;;;;;;30.37;42.46;100948.09;5073701;28;1308;-39
2022/08/08 12:40:56;;;;;;;;;;;;;;;30.21;42.71;100951.50;5074083;28;1301;-38
2022/08/08 12:43:33;;;;;;;;;;;;;;;30.18;42.30;100943.75;5073643;28;1300;-40
2022/08/08 12:46:23;;;;;;;;;;;;;;;30.70;40.15;100940.06;5074020;28;2174;-40
2022/08/08 12:49:00;;;;;;;;;;;;;;;30.57;41.23;100939.69;5073125;28;1997;-39
2022/08/08 12:51:49;;;;;;;;;;;;;;;30.26;43.14;100943.81;5064168;28;2172;-37
2022/08/08 12:54:27;;;;;;;;;;;;;;;30.66;40.51;100943.25;5072820;28;1544;-41
2022/08/08 12:56:54;;;;;;;;;;;;;;;30.64;41.41;100935.31;5072335;28;1211;-39
2022/08/08 12:59:29;;;;;;;;;;;;;;;30.64;40.82;100926.44;5071128;28;1151;-39
2022/08/08 13:02:28;;;;;;;;;;;;;;;30.68;41.22;100923.25;5072724;28;2520;-38
2022/08/08 13:04:58;;;;;;;;;;;;;;;30.85;41.11;100927.69;5073823;28;1155;-33
2022/08/08 13:07:35;;;;;;;;;;;;;;;30.46;41.46;100928.38;5072466;28;1165;-41
2022/08/08 13:10:30;;;;;;;;;;;;;;;30.66;41.16;100927.97;5072204;28;2287;-39
2022/08/08 13:13:00;;;;;;;;;;;;;;;30.53;42.71;100924.00;5073011;28;1272;-41
2022/08/08 13:15:34;;;;;;;;;;;;;;;30.30;43.38;100935.28;5073610;28;1041;-38
2022/08/08 13:18:01;;;;;;;;;;;;;;;30.44;40.21;100933.88;5072865;28;1299;-40
2022/08/08 13:20:44;;;;;;;;;;;;;;;30.48;42.50;100929.03;5073683;28;1785;-38
2022/08/08 13:23:20;;;;;;;;;;;;;;;30.24;43.50;100932.38;5072646;28;1173;-38
2022/08/08 13:26:07;;;;;;;;;;;;;;;30.24;43.70;100938.63;5073628;28;2678;-34
2022/08/08 13:28:43;;;;;;;;;;;;;;;30.63;42.14;100930.13;5072996;28;1906;-39
2022/08/08 13:31:14;;;;;;;;;;;;;;;30.63;42.80;100930.97;5073009;28;651;-41
2022/08/08 13:33:44;;;;;;;;;;;;;;;30.52;43.01;100930.41;5072186;28;1315;-34
2022/08/08 13:36:12;;;;;;;;;;;;;;;30.29;43.99;100935.44;5073207;28;1091;-40
2022/08/08 13:38:42;;;;;;;;;;;;;;;30.26;44.65;100925.84;5071226;28;1327;-38
2022/08/08 13:41:09;;;;;;;;;;;;;;;30.21;44.28;100919.28;5071064;28;713;-36
2022/08/08 13:43:46;;;;;;;;;;;;;;;30.49;43.20;100920.81;5071448;28;1618;-37
2022/08/08 13:46:16;;;;;;;;;;;;;;;30.45;44.24;100921.28;5071017;28;1088;-37
2022/08/08 13:48:54;;;;;;;;;;;;;;;30.34;44.92;100916.97;5072231;28;1913;-36
2022/08/08 13:51:53;;;;;;;;;;;;;;;30.29;45.23;100924.69;5072213;28;2331;-39
2022/08/08 13:54:21;;;;;;;;;;;;;;;30.24;44.98;100908.22;5070185;28;1189;-38